83B weather

Presque Isle Seaplane Base
Presque Isle, Maine, United States

Public forecast

Using degrees Fahrenheit for public forecast. Weather courtesy of forecast.io.

Closest aviation weather report (METAR) to Presque Isle Seaplane Base

Closest report is Presque Isle International Airport, 1.3 nm (2.4 km) SSE. Retrieved 2019/10/23 18:56 UTC (16 minutes ago):

KPQI 231856Z AUTO 02008KT 10SM -RA OVC006 07/07 A2976 RMK AO2 SLP107 P0006 T00720067

Closest aviation forecast (TAF) to Presque Isle Seaplane Base

Closest forecast is Presque Isle International Airport, 1.3 nm (2.4 km) SSE. Retrieved 2019/10/23 18:22 UTC (50 minutes ago):

TAF KPQI 231720Z 2318/2418 03007KT 2SM RA OVC005 FM231930 36005KT 5SM -SHRA OVC007 FM232300 30005KT P6SM BKN015 FM240300 27006KT P6SM BKN050 FM241400 23008G18KT P6SM BKN060